Flight Track Log - Related Links

Times and Time Zones

All times are in EDT time to prevent confusion due to time zone crossing. See the DAL268 flight status page for this flight to view local times or setup timezone preferences in your user account.

Time Position Orientation Groundspeed Altitude Reporting Facility
EDT Latitude Longitude Course Direction KTS MPH feet Rate Location/Type
Sat 02:41:55 PM 37.6273 -122.3670 27° Northeast 180 207  Level FlightAware
Sat 02:42:04 PM 37.6339 -122.3630 26° Northeast 170 196 600 3,600 Climbing FlightAware
Sat 02:42:10 PM 37.6379 -122.3600 31° Northeast 170 196 900 2,667 Climbing FlightAware
Sat 02:42:13 PM 37.6400 -122.3580 37° Northeast 172 198 1,000 2,667 Climbing FlightAware
Sat 02:42:19 PM 37.6436 -122.3540 41° Northeast 175 201 1,300 1,895 Climbing FlightAware
Sat 02:42:32 PM 37.6507 -122.3450 45° Northeast 186 214 1,600 1,500 Climbing FlightAware
Sat 02:42:47 PM 37.6604 -122.3310 49° Northeast 209 241 2,000 1,548 Climbing FlightAware
Sat 02:43:03 PM 37.6711 -122.3160 48° Northeast 232 267 2,400 1,548 Climbing FlightAware
Sat 02:43:18 PM 37.6824 -122.3000 48° Northeast 250 288 2,800 2,000 Climbing FlightAware
Sat 02:43:33 PM 37.6945 -122.2830 48° Northeast 260 299 3,400 2,710 Climbing FlightAware
Sat 02:43:49 PM 37.7082 -122.2650 46° Northeast 265 305 4,200 2,870 Climbing FlightAware
Sat 02:44:19 PM 37.7331 -122.2310 47° Northeast 271 312 5,600 2,824 Climbing FlightAware
Sat 02:44:40 PM 37.7512 -122.2050 49° Northeast 275 316 6,600 2,919 Climbing FlightAware
Sat 02:44:56 PM 37.7642 -122.1870 48° Northeast 277 319 7,400 2,909 Climbing FlightAware
Sat 02:45:13 PM 37.7789 -122.1660 48° Northeast 277 319 8,200 2,813 Climbing FlightAware
Sat 02:45:28 PM 37.7922 -122.1470 48° Northeast 281 323 8,900 2,516 Climbing FlightAware
Sat 02:45:44 PM 37.8067 -122.1280 46° Northeast 288 331 9,500 1,787 Climbing FlightAware
Sat 02:46:15 PM 37.8361 -122.0890 46° Northeast 315 362 10,300 1,418 Climbing FlightAware
Sat 02:46:39 PM 37.8621 -122.0550 46° Northeast 341 392 10,800 1,355 Climbing FlightAware
Sat 02:46:46 PM 37.8688 -122.0440 52° Northeast 345 397 11,000 1,846 Climbing FlightAware
Sat 02:46:52 PM 37.8746 -122.0330 56° Northeast 348 400 11,200 1,875 Climbing FlightAware
Sat 02:47:02 PM 37.8815 -122.0160 63° Northeast 350 403 11,500 1,600 Climbing FlightAware
Sat 02:47:07 PM 37.8849 -122.0050 69° East 353 406 11,600 1,714 Climbing FlightAware
Sat 02:47:16 PM 37.8890 -121.9880 73° East 356 410 11,900 1,737 Climbing FlightAware
Sat 02:47:45 PM 37.9005 -121.9260 77° East 375 432 12,700 2,152 Climbing FlightAware
Sat 02:48:48 PM 37.9270 -121.7900 76° East 387 445 15,200 2,234 Climbing FlightAware
Sat 02:49:19 PM 37.9403 -121.7220 76° East 397 457 16,200 1,905 Climbing FlightAware
Sat 02:49:51 PM 37.9537 -121.6500 77° East 404 465 17,200 1,839 Climbing FlightAware
Sat 02:50:21 PM 37.9668 -121.5790 77° East 412 474 18,100 1,900 Climbing FlightAware
Sat 02:50:51 PM 37.9802 -121.5080 77° East 418 481 19,100 1,900 Climbing FlightAware
Sat 02:51:21 PM 37.9941 -121.4360 76° East 423 487 20,000 1,800 Climbing FlightAware
Sat 02:51:51 PM 38.0078 -121.3630 77° East 430 495 20,900 1,742 Climbing FlightAware
Sat 02:52:23 PM 38.0223 -121.2850 77° East 435 501 21,800 1,575 Climbing FlightAware
Sat 02:53:11 PM 38.0452 -121.1630 77° East 447 514 23,000 1,442 Climbing FlightAware
Sat 02:54:07 PM 38.0720 -121.0200 77° East 459 528 24,300 1,438 Climbing FlightAware
Sat 02:54:47 PM 38.0950 -120.9180 74° East 467 537 25,300 1,297 Climbing FlightAware
Sat 02:55:21 PM 38.1170 -120.8280 73° East 476 548 25,900 1,200 Climbing FlightAware
Sat 02:55:52 PM 38.1360 -120.7450 74° East 482 555 26,600 1,324 Climbing FlightAware
Sat 02:56:29 PM 38.1560 -120.6420 76° East 488 562 27,400 1,226 Climbing FlightAware
Sat 02:57:25 PM 38.1840 -120.4850 77° East 493 567 28,500 1,432 Climbing FlightAware
Sat 02:57:57 PM 38.2000 -120.3960 77° East 488 562 29,500 1,781 Climbing FlightAware
Sat 02:58:29 PM 38.2160 -120.3060 77° East 485 558 30,400 1,457 Climbing FlightAware
Sat 02:59:07 PM 38.2340 -120.2000 78° East 486 559 31,200 1,371 Climbing FlightAware
Sat 02:59:39 PM 38.2500 -120.1100 77° East 484 557 32,000 1,412 Climbing FlightAware
Sat 03:00:15 PM 38.2670 -120.0120 78° East 480 552 32,800 1,342 Climbing FlightAware
Sat 03:00:55 PM 38.2860 -119.8980 78° East 479 551 33,700 1,184 Climbing FlightAware
Sat 03:01:31 PM 38.3020 -119.8040 78° East 480 552 34,300 1,083 Climbing FlightAware
Sat 03:02:07 PM 38.3190 -119.7040 78° East 479 551 35,000 1,000 Climbing FlightAware
Sat 03:02:43 PM 38.3360 -119.6000 78° East 480 552 35,500 833 Climbing FlightAware
Sat 03:03:19 PM 38.3530 -119.5040 77° East 482 555 36,000 896 Climbing FlightAware
Sat 03:03:50 PM 38.3670 -119.4160 79° East 480 552 36,500 750 Climbing FlightAware
Sat 03:04:39 PM 38.3897 -119.2794 78° East 478 550 37,000 380 Climbing FlightAware
Sat 03:05:09 PM 38.4031 -119.1981 78° East 477 549 37,000  Level FlightAware
Sat 03:05:39 PM 38.4167 -119.1152 78° East 478 550 37,000  Level FlightAware
Sat 03:06:09 PM 38.4302 -119.0326 78° East 481 554 37,000  Level FlightAware
Sat 03:06:39 PM 38.4434 -118.9519 78° East 482 555 37,000  Level FlightAware
Sat 03:07:09 PM 38.4570 -118.8660 79° East 484 557 37,000  Level FlightAware
Sat 03:08:09 PM 38.4840 -118.7000 78° East 485 558 37,000  Level FlightAware
Sat 03:08:36 PM 38.4970 -118.6210 78° East 486 559 37,000  Level FlightAware
Sat 03:09:32 PM 38.5210 -118.4650 79° East 484 557 37,000  Level FlightAware
Sat 03:10:10 PM 38.5380 -118.3600 78° East 482 555 37,000  Level FlightAware
Sat 03:10:48 PM 38.5550 -118.2530 78° East 480 552 37,000  Level FlightAware
Sat 03:11:32 PM 38.5700 -118.1570 79° East 478 550 37,000  Level FlightAware
Sat 03:12:02 PM 38.5870 -118.0480 79° East 476 548 37,000  Level FlightAware
Sat 03:12:51 PM 38.6060 -117.9270 79° East 475 547 37,000  Level FlightAware
Sat 03:13:51 PM 38.6290 -117.7860 78° East 475 547 37,000  Level FlightAware
Sat 03:14:51 PM 38.6530 -117.6460 78° East 475 547 37,000  Level FlightAware
Sat 03:15:39 PM 38.6710 -117.5340 78° East 475 547 37,000  Level FlightAware
Sat 03:16:27 PM 38.6900 -117.4210 78° East 475 547 37,000  Level FlightAware
Sat 03:17:03 PM 38.7040 -117.3370 78° East 475 547 37,000  Level FlightAware
Sat 03:18:03 PM 38.7270 -117.1970 78° East 475 547 37,000  Level FlightAware
Sat 03:18:40 PM 38.7420 -117.1100 78° East 475 547 37,000  Level FlightAware
Sat 03:19:40 PM 38.7650 -116.9690 78° East 475 547 37,000  Level FlightAware
Sat 03:20:16 PM 38.7790 -116.8850 78° East 475 547 37,000  Level FlightAware
Sat 03:21:17 PM 38.8020 -116.7420 78° East 475 547 37,000  Level FlightAware
Sat 03:22:17 PM 38.8260 -116.6010 78° East 475 547 37,000  Level FlightAware
Sat 03:22:49 PM 38.8450 -116.2736 78° East 479 551 37,000  Level Oakland Center
Sat 03:23:51 PM 38.8669 -116.1122 80° East 478 550 37,000  Level Oakland Center
Sat 03:24:44 PM 38.8861 -115.9719 80° East 476 548 37,000  Level Salt Center
Sat 03:25:46 PM 38.9097 -115.8042 80° East 478 550 37,000  Level Salt Center
Sat 03:26:47 PM 38.9314 -115.6347 81° East 479 551 37,000  Level Salt Center
Sat 03:27:49 PM 38.9575 -115.4331 80° East 477 549 37,000  Level Salt Center
Sat 03:28:50 PM 38.9797 -115.2750 80° East 484 557 37,000  Level Salt Center
Sat 03:29:52 PM 39.0011 -115.1069 81° East 481 554 37,000  Level Salt Center
Sat 03:30:54 PM 39.0222 -114.9392 81° East 476 548 37,000  Level Salt Center
Sat 03:37:05 PM 39.1725 -113.8910 81° East 464 534 37,000  Level FlightAware
Sat 03:38:04 PM 39.2138 -113.7370 71° East 463 533 37,000  Level FlightAware
Sat 03:38:45 PM 39.2429 -113.6297 71° East 463 533 37,000  Level FlightAware
Sat 03:39:39 PM 39.2810 -113.4900 71° East 462 532 37,000  Level FlightAware
Sat 03:40:35 PM 39.3202 -113.3451 71° East 463 533 37,000  Level FlightAware
Sat 03:41:15 PM 39.3485 -113.2399 71° East 461 531 37,000  Level FlightAware
Sat 03:41:41 PM 39.3668 -113.1720 71° East 461 531 37,000  Level FlightAware
Sat 03:42:11 PM 39.3878 -113.0930 71° East 461 531 37,000  Level FlightAware
Sat 03:42:34 PM 39.4027 -113.0370 71° East 461 531 37,000  Level FlightAware
Sat 03:42:42 PM 39.4088 -113.0140 71° East 461 531 37,000  Level FlightAware
Sat 03:43:05 PM 39.4244 -112.9553 71° East 461 531 37,000  Level FlightAware
Sat 03:43:12 PM 39.4299 -112.9350 71° East 461 531 37,000  Level FlightAware
Sat 03:43:35 PM 39.4448 -112.8785 71° East 462 532 37,000  Level FlightAware
Sat 03:43:42 PM 39.4506 -112.8560 72° East 462 532 37,000  Level FlightAware
Sat 03:44:13 PM 39.4716 -112.7770 71° East 462 532 37,000  Level FlightAware
Sat 03:44:34 PM 39.4843 -112.7285 71° East 462 532 37,000  Level FlightAware
Sat 03:44:43 PM 39.4922 -112.6990 71° East 462 532 37,000  Level FlightAware
Sat 03:45:14 PM 39.5135 -112.6172 71° East 462 532 37,000  Level FlightAware
Sat 03:45:16 PM 39.5149 -112.6120 70° East 462 532 37,000  Level FlightAware
Sat 03:45:46 PM 39.5354 -112.5330 71° East 462 532 37,000  Level FlightAware
Sat 03:46:05 PM 39.5479 -112.4845 71° East 463 533 37,000  Level FlightAware
Sat 03:46:16 PM 39.5559 -112.4540 71° East 463 533 37,000  Level FlightAware
Sat 03:46:47 PM 39.5765 -112.3740 72° East 463 533 37,000  Level FlightAware
Sat 03:47:05 PM 39.5884 -112.3273 72° East 462 532 37,000  Level FlightAware
Sat 03:47:18 PM 39.5972 -112.2930 72° East 462 532 37,000  Level FlightAware
Sat 03:47:49 PM 39.6185 -112.2100 72° East 462 532 37,000  Level FlightAware
Sat 03:48:15 PM 39.6353 -112.1436 72° East 462 532 37,000  Level FlightAware
Sat 03:48:20 PM 39.6388 -112.1300 72° East 462 532 37,000  Level FlightAware
Sat 03:48:45 PM 39.6551 -112.0660 72° East 462 532 37,000  Level FlightAware
Sat 03:48:50 PM 39.6588 -112.0510 72° East 462 532 37,000  Level FlightAware
Sat 03:49:27 PM 39.6834 -111.9540 72° East 462 532 37,000  Level FlightAware
Sat 03:49:43 PM 39.6917 -111.9214 72° East 462 532 37,000  Level FlightAware
Sat 03:50:02 PM 39.7067 -111.8620 72° East 462 532 37,000  Level FlightAware
Sat 03:50:25 PM 39.7216 -111.8025 72° East 462 532 37,000  Level FlightAware
Sat 03:50:33 PM 39.7271 -111.7810 72° East 462 532 37,000  Level FlightAware
Sat 03:51:03 PM 39.7471 -111.7010 72° East 461 531 37,000  Level FlightAware
Sat 03:51:34 PM 39.7669 -111.6210 72° East 461 531 37,000  Level FlightAware
Sat 03:51:45 PM 39.7717 -111.6024 72° East 461 531 37,000  Level FlightAware
Sat 03:52:04 PM 39.7867 -111.5420 72° East 461 531 37,000  Level FlightAware
Sat 03:52:34 PM 39.8064 -111.4620 72° East 461 531 37,000  Level FlightAware
Sat 03:52:55 PM 39.8164 -111.4222 72° East 461 531 37,000  Level FlightAware
Sat 03:53:06 PM 39.8275 -111.3770 72° East 461 531 37,000  Level FlightAware
Sat 03:53:34 PM 39.8441 -111.3098 72° East 461 531 37,000  Level FlightAware
Sat 03:53:37 PM 39.8473 -111.2970 72° East 461 531 37,000  Level FlightAware
Sat 03:54:04 PM 39.8647 -111.2258 72° East 461 531 37,000  Level FlightAware
Sat 03:54:08 PM 39.8675 -111.2150 71° East 460 529 37,000  Level FlightAware
Sat 03:54:34 PM 39.8837 -111.1481 72° East 460 529 37,000  Level FlightAware
Sat 03:54:38 PM 39.8871 -111.1350 71° East 460 529 37,000  Level FlightAware
Sat 03:55:05 PM 39.9038 -111.0657 73° East 460 529 37,000  Level FlightAware
Sat 03:55:09 PM 39.9066 -111.0550 71° East 460 529 37,000  Level FlightAware
Sat 03:55:35 PM 39.9218 -110.9918 73° East 458 527 37,000  Level FlightAware
Sat 03:55:41 PM 39.9270 -110.9700 73° East 458 527 37,000  Level FlightAware
Sat 03:56:07 PM 39.9428 -110.9055 72° East 458 527 37,000  Level FlightAware
Sat 03:56:14 PM 39.9483 -110.8820 73° East 458 527 37,000  Level FlightAware
Sat 03:56:41 PM 39.9635 -110.8192 72° East 458 527 37,000  Level FlightAware
Sat 03:56:45 PM 39.9673 -110.8030 73° East 457 526 37,000  Level FlightAware
Sat 03:57:19 PM 39.9890 -110.7136 72° East 456 525 37,000  Level FlightAware
Sat 03:57:53 PM 40.0089 -110.6301 73° East 456 525 37,000  Level FlightAware
Sat 03:58:34 PM 40.0348 -110.5218 73° East 456 525 37,000  Level FlightAware
Sat 03:59:04 PM 40.0531 -110.4446 73° East 455 524 37,000  Level FlightAware
Sat 03:59:35 PM 40.0734 -110.3588 73° East 455 524 37,000  Level FlightAware
Sat 04:00:14 PM 40.0980 -110.2544 73° East 455 524 37,000  Level FlightAware
Sat 04:00:45 PM 40.1165 -110.1755 73° East 455 524 37,000  Level FlightAware
Sat 04:01:15 PM 40.1327 -110.1060 73° East 456 525 37,000  Level FlightAware
Sat 04:01:45 PM 40.1534 -110.0175 73° East 456 525 37,000  Level FlightAware
Sat 04:02:18 PM 40.1735 -109.9311 73° East 456 525 37,000  Level FlightAware
Sat 04:02:50 PM 40.1920 -109.8511 73° East 455 524 37,000  Level FlightAware
Sat 04:03:29 PM 40.2167 -109.7438 73° East 455 524 37,000  Level FlightAware
Sat 04:04:01 PM 40.2261 -109.7030 73° East 455 524 37,000  Level FlightAware
Sat 04:04:31 PM 40.2537 -109.5822 73° East 456 525 37,000  Level FlightAware
Sat 04:05:03 PM 40.2731 -109.4970 73° East 456 525 37,000  Level FlightAware
Sat 04:05:35 PM 40.2905 -109.4202 73° East 456 525 37,000  Level FlightAware
Sat 04:06:05 PM 40.3105 -109.3321 73° East 456 525 37,000  Level FlightAware
Sat 04:06:35 PM 40.3282 -109.2537 74° East 455 524 37,000  Level FlightAware
Sat 04:07:08 PM 40.3474 -109.1681 74° East 456 525 37,000  Level FlightAware
Sat 04:07:38 PM 40.3654 -109.0873 74° East 456 525 37,000  Level FlightAware
Sat 04:08:08 PM 40.3830 -109.0083 74° East 457 526 37,000  Level FlightAware
Sat 04:08:39 PM 40.4019 -108.9234 74° East 457 526 37,000  Level FlightAware
Sat 04:09:09 PM 40.4191 -108.8458 74° East 458 527 37,000  Level FlightAware
Sat 04:09:43 PM 40.4313 -108.7901 74° East 458 527 37,000  Level FlightAware (KGUC)
Sat 04:10:17 PM 40.4590 -108.6639 74° East 459 528 37,000  Level FlightAware (KGUC)
Sat 04:10:48 PM 40.4754 -108.5892 74° East 460 529 37,000  Level FlightAware (KGUC)
Sat 04:11:22 PM 40.4954 -108.4974 74° East 461 531 37,000  Level FlightAware
Sat 04:11:52 PM 40.5147 -108.4081 74° East 460 529 37,000  Level FlightAware
Sat 04:12:23 PM 40.5318 -108.3287 74° East 460 529 37,000  Level FlightAware
Sat 04:12:53 PM 40.5498 -108.2455 74° East 460 529 37,000  Level FlightAware
Sat 04:13:23 PM 40.5667 -108.1666 74° East 459 528 37,000  Level FlightAware
Sat 04:13:53 PM 40.5843 -108.0842 74° East 458 527 37,000  Level FlightAware
Sat 04:14:23 PM 40.6008 -108.0063 74° East 457 526 37,000  Level FlightAware
Sat 04:14:56 PM 40.6192 -107.9198 74° East 457 526 37,000  Level FlightAware
Sat 04:15:26 PM 40.6367 -107.8367 74° East 454 522 37,000  Level FlightAware
Sat 04:16:00 PM 40.6554 -107.7477 74° East 453 521 37,000  Level FlightAware
Sat 04:16:30 PM 40.6725 -107.6660 75° East 452 520 37,000  Level FlightAware
Sat 04:17:00 PM 40.6890 -107.5868 75° East 452 520 37,000  Level FlightAware
Sat 04:17:32 PM 40.7057 -107.5064 75° East 453 521 37,000  Level FlightAware
Sat 04:18:02 PM 40.7226 -107.4252 75° East 453 521 37,000  Level FlightAware
Sat 04:18:32 PM 40.7388 -107.3465 75° East 454 522 37,000  Level FlightAware
Sat 04:19:18 PM 40.7600 -107.2430 75° East 453 521 37,000  Level FlightAware
Sat 04:19:49 PM 40.7817 -107.1366 75° East 453 521 37,000  Level FlightAware
Sat 04:20:28 PM 40.7834 -107.1281 75° East 452 520 37,000  Level FlightAware
Sat 04:21:04 PM 40.8218 -106.9392 75° East 452 520 37,000  Level FlightAware
Sat 04:21:34 PM 40.8361 -106.8678 75° East 452 520 37,000  Level FlightAware
Sat 04:22:07 PM 40.8550 -106.7730 75° East 451 519 37,000  Level FlightAware
Sat 04:22:17 PM 40.8589 -106.7539 75° East 452 520 37,000  Level FlightAware
Sat 04:23:15 PM 40.8910 -106.5930 75° East 451 519 37,000  Level FlightAware
Sat 04:23:32 PM 40.9007 -106.5442 75° East 452 520 37,000  Level FlightAware
Sat 04:24:42 PM 40.9370 -106.3590 75° East 451 519 37,000  Level FlightAware
Sat 04:25:40 PM 40.9670 -106.2070 75° East 450 518 37,000  Level FlightAware
Sat 04:26:48 PM 41.0020 -106.0240 76° East 448 516 37,000  Level FlightAware
Sat 04:27:28 PM 41.0220 -105.9200 76° East 447 514 37,000  Level FlightAware
Sat 04:28:24 PM 41.0510 -105.7680 76° East 443 510 37,000  Level FlightAware
Sat 04:29:22 PM 41.0790 -105.6190 76° East 438 504 37,000  Level FlightAware
Sat 04:29:54 PM 41.0960 -105.5340 75° East 434 499 37,000  Level FlightAware
Sat 04:30:54 PM 41.1240 -105.3830 76° East 430 495 37,000  Level FlightAware
Sat 04:31:16 PM 41.1347 -105.3239 76° East 428 493 37,000  Level FlightAware
Sat 04:31:49 PM 41.1490 -105.2450 76° East 427 491 37,000  Level FlightAware
Sat 04:32:28 PM 41.1680 -105.1430 76° East 425 489 37,000  Level FlightAware
Sat 04:33:25 PM 41.1950 -104.9990 76° East 424 488 37,000  Level FlightAware
Sat 04:33:57 PM 41.1661 -105.1543 256° West 425 489 37,000  Level FlightAware
Sat 04:35:12 PM 41.2440 -104.7260 76° East 431 496 37,000  Level FlightAware
Sat 04:36:04 PM 41.2680 -104.5910 77° East 433 498 37,000  Level FlightAware
Sat 04:36:08 PM 41.2698 -104.5827 74° East 434 499 37,000  Level FlightAware
Sat 04:37:38 PM 41.3110 -104.3510 77° East 435 501 37,000  Level FlightAware
Sat 04:38:27 PM 41.3340 -104.2220 77° East 436 502 37,000  Level FlightAware
Sat 04:38:55 PM 41.3460 -104.1490 78° East 436 502 37,000  Level FlightAware
Sat 04:39:51 PM 41.3720 -104.0020 77° East 436 502 37,000  Level FlightAware
Sat 04:40:35 PM 41.3920 -103.8870 77° East 437 503 37,000  Level FlightAware
Sat 04:41:07 PM 41.4060 -103.8020 78° East 437 503 37,000  Level FlightAware
Sat 04:42:03 PM 41.4310 -103.6550 77° East 438 504 37,000  Level FlightAware
Sat 04:42:55 PM 41.4540 -103.5190 77° East 439 505 37,000  Level FlightAware
Sat 04:43:51 PM 41.4790 -103.3700 77° East 441 507 37,000  Level FlightAware
Sat 04:44:13 PM 41.4890 -103.3140 77° East 441 507 37,000  Level FlightAware
Sat 04:44:53 PM 41.5060 -103.2100 78° East 442 509 37,000  Level FlightAware
Sat 04:45:57 PM 41.5310 -103.0650 77° East 442 509 37,000  Level FlightAware
Sat 04:46:43 PM 41.5540 -102.9140 78° East 440 506 37,000  Level FlightAware
Sat 04:47:41 PM 41.5770 -102.7850 77° East 440 506 37,000  Level FlightAware
Sat 04:48:21 PM 41.5960 -102.6560 79° East 439 505 37,000  Level FlightAware
Sat 04:49:19 PM 41.6210 -102.5010 78° East 439 505 37,000  Level FlightAware
Sat 04:50:11 PM 41.6410 -102.3770 78° East 438 504 37,000  Level FlightAware
Sat 04:50:48 PM 41.6540 -102.2940 78° East 438 504 37,000  Level FlightAware
Sat 04:51:25 PM 41.6670 -102.2100 78° East 438 504 37,000  Level FlightAware
Sat 04:52:02 PM 41.6800 -102.1270 78° East 438 504 37,000  Level FlightAware
Sat 04:53:03 PM 41.7020 -101.9890 78° East 438 504 37,000  Level FlightAware
Sat 04:54:02 PM 41.7230 -101.8560 78° East 438 504 37,000  Level FlightAware
Sat 04:54:26 PM 41.7320 -101.8020 77° East 438 504 37,000  Level FlightAware
Sat 04:55:26 PM 41.7530 -101.6670 78° East 438 504 37,000  Level FlightAware
Sat 04:56:02 PM 41.7660 -101.5850 78° East 438 504 37,000  Level FlightAware
Sat 04:56:38 PM 41.7790 -101.5040 78° East 438 504 37,000  Level FlightAware
Sat 04:57:02 PM 41.7880 -101.4500 77° East 438 504 37,000  Level FlightAware
Sat 04:57:50 PM 41.8050 -101.3410 78° East 438 504 37,000  Level FlightAware
Sat 04:58:38 PM 41.8220 -101.2330 78° East 438 504 37,000  Level FlightAware
Sat 04:59:15 PM 41.8350 -101.1490 78° East 438 504 37,000  Level FlightAware
Sat 04:59:27 PM 41.8390 -101.1220 79° East 438 504 37,000  Level FlightAware
Sat 05:00:13 PM 41.8769 -100.8067 79° East 421 484 37,000  Level Denver Center
Sat 05:01:15 PM 41.8967 -100.6611 80° East 416 479 37,000  Level Denver Center
Sat 05:02:16 PM 41.9178 -100.5117 79° East 423 487 37,000  Level Denver Center
Sat 05:08:12 PM 42.0461 -99.5678 79° East 424 488 37,000  Level FlightAware
Sat 05:08:45 PM 42.0573 -99.4825 80° East 425 489 37,000 -488 Level FlightAware
Sat 05:12:18 PM 42.1290 -98.9230 80° East 439 505 35,000 -443 Descending FlightAware
Sat 05:13:16 PM 42.1490 -98.7640 80° East 436 502 35,000  Level FlightAware
Sat 05:13:53 PM 42.1606 -98.6671 81° East 436 502 35,000  Level FlightAware
Sat 05:14:30 PM 42.1720 -98.5700 81° East 434 499 35,000  Level FlightAware
Sat 05:15:03 PM 42.1830 -98.4800 81° East 434 499 35,000  Level FlightAware
Sat 05:15:39 PM 42.1945 -98.3877 80° East 435 501 35,000  Level FlightAware
Sat 05:17:02 PM 42.2210 -98.1630 81° East 436 502 35,000  Level FlightAware
Sat 05:17:34 PM 42.2320 -98.0760 80° East 436 502 35,000  Level FlightAware
Sat 05:18:07 PM 42.2419 -97.9880 81° East 436 502 35,000  Level FlightAware
Sat 05:18:59 PM 42.2580 -97.8470 81° East 438 504 35,000  Level FlightAware
Sat 05:19:54 PM 42.2753 -97.6994 81° East 439 505 35,000  Level FlightAware
Sat 05:20:38 PM 42.2890 -97.5800 81° East 439 505 35,000  Level FlightAware
Sat 05:21:40 PM 42.3073 -97.4151 81° East 440 506 35,000  Level FlightAware
Sat 05:22:25 PM 42.3210 -97.2910 81° East 437 503 35,000  Level FlightAware
Sat 05:23:30 PM 42.3405 -97.1136 81° East 438 504 35,000  Level FlightAware
Sat 05:24:08 PM 42.3520 -97.0120 81° East 437 503 35,000  Level FlightAware
Sat 05:24:50 PM 42.3640 -96.9010 82° East 438 504 35,000  Level FlightAware
Sat 05:25:04 PM 42.3679 -96.8597 83° East 438 504 35,000  Level FlightAware
Sat 05:25:43 PM 42.3790 -96.7540 82° East 439 505 35,000  Level FlightAware
Sat 05:26:17 PM 42.3885 -96.6637 82° East 439 505 35,000  Level FlightAware
Sat 05:27:26 PM 42.4080 -96.4760 82° East 440 506 35,000  Level FlightAware
Sat 05:27:41 PM 42.4122 -96.4356 82° East 440 506 35,000  Level FlightAware
Sat 05:28:34 PM 42.4203 -96.3562 82° East 440 506 35,000  Level FlightAware
Sat 05:30:02 PM 42.4510 -96.0510 82° East 441 507 35,000  Level FlightAware
Sat 05:30:56 PM 42.4650 -95.9040 83° East 441 507 35,000  Level FlightAware
Sat 05:31:43 PM 42.4780 -95.7730 82° East 442 509 35,000  Level FlightAware
Sat 05:32:35 PM 42.4920 -95.6310 82° East 443 510 35,000  Level FlightAware
Sat 05:33:24 PM 42.5040 -95.4980 83° East 443 510 35,000  Level FlightAware
Sat 05:34:14 PM 42.5170 -95.3590 83° East 442 509 35,000  Level FlightAware
Sat 05:35:13 PM 42.5316 -95.2042 83° East 441 507 35,000  Level FlightAware (LPVM)
Sat 05:35:49 PM 42.5396 -95.1166 83° East 441 507 35,000  Level FlightAware (LPVM)
Sat 05:36:36 PM 42.5518 -94.9816 83° East 441 507 35,000  Level FlightAware (LPVM)
Sat 05:37:20 PM 42.5640 -94.8500 83° East 443 510 35,000  Level FlightAware
Sat 05:37:58 PM 42.5730 -94.7450 83° East 444 511 35,000  Level FlightAware
Sat 05:38:49 PM 42.5850 -94.6040 83° East 445 512 35,000  Level FlightAware
Sat 05:39:27 PM 42.5940 -94.5000 83° East 445 512 35,000  Level FlightAware
Sat 05:39:55 PM 42.6004 -94.4217 84° East 446 513 35,000  Level FlightAware (LPVM)
Sat 05:40:30 PM 42.6069 -94.3457 83° East 446 513 35,000  Level FlightAware (LPVM)
Sat 05:41:19 PM 42.6140 -94.1850 86° East 456 525 35,000  Level FlightAware
Sat 05:42:17 PM 42.6130 -94.0220 90° East 455 524 35,000  Level FlightAware
Sat 05:42:53 PM 42.6130 -93.9190 90° East 455 524 35,000  Level FlightAware
Sat 05:43:29 PM 42.6140 -93.8160 89° East 455 524 35,000  Level FlightAware
Sat 05:43:57 PM 42.6150 -93.7360 89° East 456 525 35,000  Level FlightAware
Sat 05:44:37 PM 42.6160 -93.6220 89° East 456 525 35,000  Level FlightAware
Sat 05:45:26 PM 42.6160 -93.4840 90° East 457 526 35,000  Level FlightAware
Sat 05:46:13 PM 42.6170 -93.3460 89° East 458 527 35,000  Level FlightAware
Sat 05:46:47 PM 42.6170 -93.2490 90° East 458 527 35,000  Level FlightAware
Sat 05:47:35 PM 42.6170 -93.1130 90° East 459 528 35,000  Level FlightAware
Sat 05:48:28 PM 42.6170 -92.9670 90° East 460 529 35,000  Level FlightAware
Sat 05:49:03 PM 42.6160 -92.8580 91° East 459 528 35,000  Level FlightAware
Sat 05:49:43 PM 42.6160 -92.7440 90° East 460 529 35,000  Level FlightAware
Sat 05:50:35 PM 42.6150 -92.5940 90° East 460 529 35,000  Level FlightAware
Sat 05:51:23 PM 42.6140 -92.4540 91° East 460 529 35,000  Level FlightAware
Sat 05:52:08 PM 42.6140 -92.3260 90° East 461 531 35,000  Level FlightAware
Sat 05:52:33 PM 42.6131 -92.2525 91° East 463 533 35,000  Level FlightAware (LPVM)
Sat 05:53:12 PM 42.6121 -92.1412 91° East 463 533 35,000  Level FlightAware (LPVM)
Sat 05:53:56 PM 42.6108 -92.0135 91° East 464 534 35,000  Level FlightAware (LPVM)
Sat 05:54:35 PM 42.6098 -91.9127 91° East 464 534 35,000  Level FlightAware (LPVM)
Sat 05:55:16 PM 42.6083 -91.7797 91° East 464 534 35,000  Level FlightAware (LPVM)
Sat 05:55:54 PM 42.6069 -91.6710 91° East 464 534 35,000  Level FlightAware (LPVM)
Sat 05:56:33 PM 42.6054 -91.5568 91° East 463 533 35,000  Level FlightAware (LPVM)
Sat 05:57:30 PM 42.6029 -91.3908 91° East 464 534 35,000  Level FlightAware (LPVM)
Sat 05:58:34 PM 42.5999 -91.2046 91° East 465 535 35,000  Level FlightAware (LPVM)
Sat 05:59:16 PM 42.5977 -91.0812 91° East 465 535 35,000  Level FlightAware (LPVM)
Sat 05:59:54 PM 42.5960 -90.9896 91° East 466 536 35,000  Level FlightAware (LPVM)
Sat 06:00:56 PM 42.5920 -90.7910 91° East 467 537 35,000  Level FlightAware
Sat 06:01:15 PM 42.5913 -90.7563 91° East 467 537 35,000  Level FlightAware (LPVM)
Sat 06:02:22 PM 42.5870 -90.5400 91° East 469 540 35,000  Level FlightAware
Sat 06:03:04 PM 42.5840 -90.4150 92° East 470 541 35,000  Level FlightAware
Sat 06:03:56 PM 42.5800 -90.2620 92° East 471 542 35,000  Level FlightAware
Sat 06:04:44 PM 42.5760 -90.1200 92° East 472 543 35,000  Level FlightAware
Sat 06:05:37 PM 42.5720 -89.9680 92° East 471 542 35,000  Level FlightAware
Sat 06:06:37 PM 42.5670 -89.7950 92° East 473 544 35,000  Level FlightAware
Sat 06:07:33 PM 42.5620 -89.6300 92° East 475 547 35,000  Level FlightAware
Sat 06:08:01 PM 42.5590 -89.5410 93° East 477 549 35,000  Level FlightAware
Sat 06:08:55 PM 42.5540 -89.3760 92° East 480 552 35,000  Level FlightAware
Sat 06:09:46 PM 42.5490 -89.2260 93° East 482 555 35,000  Level FlightAware
Sat 06:10:26 PM 42.5450 -89.1010 92° East 485 558 35,000  Level FlightAware
Sat 06:11:07 PM 42.5400 -88.9770 93° East 486 559 35,000  Level FlightAware
Sat 06:11:44 PM 42.5360 -88.8670 93° East 488 562 35,000  Level FlightAware
Sat 06:12:36 PM 42.5300 -88.7070 93° East 490 564 35,000  Level FlightAware
Sat 06:13:31 PM 42.5230 -88.5390 93° East 492 566 35,000  Level FlightAware
Sat 06:14:20 PM 42.5170 -88.3870 93° East 495 570 35,000  Level FlightAware
Sat 06:15:04 PM 42.5110 -88.2490 93° East 497 572 35,000  Level FlightAware
Sat 06:15:58 PM 42.5040 -88.0830 93° East 503 579 35,000  Level FlightAware
Sat 06:16:54 PM 42.5000 -87.9090 92° East 505 581 35,000  Level FlightAware
Sat 06:17:31 PM 42.5000 -87.7890 90° East 508 585 35,000  Level FlightAware
Sat 06:18:19 PM 42.4990 -87.6350 90° East 512 589 35,000  Level FlightAware
Sat 06:19:04 PM 42.4990 -87.4930 90° East 515 593 35,000  Level FlightAware
Sat 06:19:54 PM 42.4980 -87.3350 90° East 517 595 35,000  Level FlightAware
Sat 06:20:35 PM 42.4970 -87.1980 91° East 518 596 35,000  Level FlightAware
Sat 06:21:18 PM 42.4960 -87.0610 91° East 519 597 35,000  Level FlightAware
Sat 06:21:53 PM 42.4960 -86.9490 90° East 521 600 35,000  Level FlightAware
Sat 06:22:54 PM 42.4940 -86.7490 91° East 522 601 35,000  Level FlightAware
Sat 06:23:15 PM 42.4930 -86.6810 91° East 523 602 35,000  Level FlightAware
Sat 06:24:15 PM 42.4910 -86.4890 91° East 523 602 35,000  Level FlightAware
Sat 06:25:02 PM 42.4880 -86.3280 91° East 525 604 35,000  Level FlightAware
Sat 06:25:40 PM 42.4860 -86.2010 91° East 526 605 35,000  Level FlightAware
Sat 06:26:38 PM 42.4830 -86.0160 91° East 528 608 35,000  Level FlightAware
Sat 06:27:30 PM 42.4800 -85.8440 91° East 529 609 35,000  Level FlightAware
Sat 06:28:22 PM 42.4770 -85.6670 91° East 530 610 35,000  Level FlightAware
Sat 06:29:10 PM 42.4740 -85.5130 91° East 531 611 35,000  Level FlightAware
Sat 06:29:50 PM 42.4710 -85.3760 92° East 532 612 35,000  Level FlightAware
Sat 06:30:45 PM 42.4670 -85.2070 92° East 533 613 35,000  Level FlightAware
Sat 06:31:33 PM 42.4630 -85.0380 92° East 533 613 35,000  Level FlightAware
Sat 06:32:00 PM 42.4600 -84.9470 93° East 534 615 35,000  Level FlightAware
Sat 06:32:56 PM 42.4550 -84.7580 92° East 535 616 35,000  Level FlightAware
Sat 06:33:33 PM 42.4520 -84.6350 92° East 536 617 35,000  Level FlightAware
Sat 06:34:17 PM 42.4470 -84.4940 93° East 537 618 35,000  Level FlightAware
Sat 06:35:14 PM 42.4410 -84.2980 92° East 538 619 35,000  Level FlightAware
Sat 06:35:59 PM 42.4360 -84.1520 93° East 539 620 35,000  Level FlightAware
Sat 06:37:04 PM 42.4290 -83.9240 92° East 539 620 35,000  Level FlightAware
Sat 06:37:52 PM 42.4220 -83.7630 93° East 540 621 35,000  Level FlightAware
Sat 06:38:44 PM 42.4090 -83.5870 96° East 540 621 35,000  Level FlightAware
Sat 06:39:31 PM 42.3970 -83.4290 96° East 541 623 35,000  Level FlightAware
Sat 06:40:25 PM 42.3840 -83.2510 96° East 541 623 35,000  Level FlightAware
Sat 06:41:13 PM 42.3730 -83.0870 95° East 543 625 35,000  Level FlightAware
Sat 06:42:09 PM 42.3590 -82.8960 96° East 542 624 35,000  Level FlightAware
Sat 06:43:06 PM 42.3440 -82.7060 96° East 541 623 35,000  Level FlightAware
Sat 06:43:58 PM 42.3310 -82.5290 96° East 542 624 35,000  Level FlightAware
Sat 06:44:45 PM 42.3180 -82.3720 96° East 541 623 35,000  Level FlightAware
Sat 06:45:27 PM 42.3070 -82.2390 96° East 541 623 35,000  Level FlightAware
Sat 06:46:21 PM 42.2930 -82.0580 96° East 540 621 35,000  Level FlightAware
Sat 06:47:06 PM 42.2790 -81.8990 97° East 540 621 35,000  Level FlightAware
Sat 06:47:54 PM 42.2660 -81.7400 96° East 542 624 35,000  Level FlightAware
Sat 06:48:25 PM 42.2570 -81.6370 97° East 544 626 35,000  Level FlightAware
Sat 06:48:57 PM 42.2470 -81.5270 97° East 547 629 35,000  Level FlightAware
Sat 06:49:46 PM 42.2340 -81.3720 96° East 549 632 35,000  Level FlightAware
Sat 06:50:45 PM 42.2150 -81.1620 97° East 552 635 35,000  Level FlightAware
Sat 06:51:38 PM 42.1980 -80.9810 97° East 552 635 35,000  Level FlightAware
Sat 06:52:30 PM 42.1820 -80.8040 97° East 553 636 35,000  Level FlightAware
Sat 06:53:23 PM 42.1640 -80.6200 97° East 555 639 35,000  Level FlightAware
Sat 06:53:58 PM 42.1530 -80.4990 97° East 555 639 35,000  Level FlightAware
Sat 06:54:37 PM 42.1410 -80.3770 98° East 555 639 35,000  Level FlightAware
Sat 06:55:18 PM 42.1260 -80.2280 98° East 556 640 35,000  Level FlightAware
Sat 06:56:05 PM 42.1100 -80.0660 98° East 558 642 35,000  Level FlightAware
Sat 06:56:44 PM 42.0970 -79.9350 98° East 559 643 35,000  Level FlightAware
Sat 06:57:28 PM 42.0810 -79.7810 98° East 559 643 35,000  Level FlightAware
Sat 06:58:29 PM 42.0590 -79.5720 98° East 559 643 35,000  Level FlightAware
Sat 06:59:12 PM 42.0440 -79.4240 98° East 558 642 35,000  Level FlightAware
Sat 06:59:45 PM 42.0310 -79.3100 99° East 559 643 35,000  Level FlightAware
Sat 07:00:17 PM 42.0190 -79.2000 98° East 558 642 35,000  Level FlightAware
Sat 07:01:17 PM 41.9870 -78.9990 102° East 556 640 35,000  Level FlightAware
Sat 07:02:11 PM 41.9570 -78.8160 102° East 555 639 35,000  Level FlightAware
Sat 07:03:09 PM 41.9260 -78.6240 102° East 553 636 35,000  Level FlightAware
Sat 07:03:32 PM 41.9140 -78.5530 103° East 552 635 35,000  Level FlightAware
Sat 07:04:37 PM 41.8790 -78.3340 102° East 546 628 35,000  Level FlightAware
Sat 07:05:29 PM 41.8510 -78.1630 102° East 540 621 35,000  Level FlightAware
Sat 07:06:18 PM 41.8240 -78.0010 103° East 537 618 35,000  Level FlightAware
Sat 07:07:05 PM 41.7990 -77.8490 102° East 537 618 35,000  Level FlightAware
Sat 07:07:45 PM 41.7770 -77.7210 103° East 538 619 35,000  Level FlightAware
Sat 07:08:41 PM 41.7460 -77.5380 103° East 536 617 35,000  Level FlightAware
Sat 07:09:09 PM 41.7300 -77.4470 103° East 535 616 35,000  Level FlightAware
Sat 07:09:49 PM 41.7090 -77.3220 103° East 535 616 35,000  Level FlightAware
Sat 07:10:42 PM 41.6770 -77.1530 104° East 532 612 35,000  Level FlightAware
Sat 07:11:33 PM 41.6350 -76.9900 109° East 528 608 35,000 -68 Level FlightAware
Sat 07:12:10 PM 41.6040 -76.8760 110° East 527 606 34,900 -370 Descending FlightAware
Sat 07:12:54 PM 41.5680 -76.7420 110° East 521 600 34,500 -701 Descending FlightAware
Sat 07:13:27 PM 41.5400 -76.6440 111° Southeast 521 600 34,000 -944 Descending FlightAware
Sat 07:14:23 PM 41.4940 -76.4740 110° East 524 603 33,100 -821 Descending FlightAware
Sat 07:15:02 PM 41.4620 -76.3600 111° Southeast 519 597 32,700 -621 Descending FlightAware
Sat 07:15:50 PM 41.4220 -76.2150 110° East 516 594 32,200 -600 Descending FlightAware
Sat 07:16:42 PM 41.3790 -76.0620 110° East 509 586 31,700 -1,071 Descending FlightAware
Sat 07:17:14 PM 41.3520 -75.9670 111° Southeast 503 579 30,700 -1,913 Descending FlightAware
Sat 07:17:51 PM 41.3220 -75.8610 111° Southeast 494 568 29,500 -2,000 Descending FlightAware
Sat 07:18:41 PM 41.2820 -75.7210 111° Southeast 480 552 27,800 -1,922 Descending FlightAware
Sat 07:19:34 PM 41.2380 -75.5840 113° Southeast 462 532 26,200 -1,901 Descending FlightAware
Sat 07:20:22 PM 41.1960 -75.4590 114° Southeast 448 516 24,600 -1,867 Descending FlightAware
Sat 07:21:04 PM 41.1630 -75.3600 114° Southeast 437 503 23,400 -1,055 Descending FlightAware
Sat 07:21:53 PM 41.1220 -75.2400 114° Southeast 438 504 23,000 -645 Descending FlightAware
Sat 07:22:37 PM 41.0860 -75.1330 114° Southeast 432 497 22,400 -783 Descending FlightAware
Sat 07:23:25 PM 41.0450 -75.0120 114° Southeast 454 522 21,800 -643 Descending FlightAware
Sat 07:24:01 PM 41.0130 -74.9180 114° Southeast 470 541 21,500 -539 Descending FlightAware
Sat 07:24:54 PM 40.9850 -74.7680 104° East 478 550 21,000 -524 Descending FlightAware
Sat 07:25:44 PM 40.9690 -74.6230 98° East 476 548 20,600 -557 Descending FlightAware
Sat 07:26:31 PM 40.9550 -74.4910 98° East 459 528 20,100 -780 Descending FlightAware
Sat 07:27:24 PM 40.9380 -74.3420 99° East 462 532 19,300 -698 Descending FlightAware
Sat 07:27:57 PM 40.9278 -74.2493 98° East 462 532 19,100 -222 Descending FlightAware
Sat 07:28:45 PM 40.9056 -74.1248 103° East 416 479 19,000 -105 Descending FlightAware
Sat 07:28:54 PM 40.8982 -74.1048 116° Southeast 401 461 19,000 -462 Level FlightAware
Sat 07:28:58 PM 40.8940 -74.0958 122° Southeast 392 451 18,900 -1,200 Descending FlightAware
Sat 07:29:09 PM 40.8820 -74.0750 127° Southeast 376 433 18,700 -1,091 Descending FlightAware
Sat 07:29:20 PM 40.8686 -74.0587 137° Southeast 359 413 18,500 -1,333 Descending FlightAware
Sat 07:29:27 PM 40.8596 -74.0504 145° Southeast 348 400 18,300 -1,600 Descending FlightAware
Sat 07:29:35 PM 40.8487 -74.0429 153° Southeast 334 384 18,100 -1,364 Descending FlightAware
Sat 07:29:49 PM 40.8289 -74.0341 161° South 315 362 17,800 -2,043 Descending FlightAware
Sat 07:30:22 PM 40.7830 -74.0186 166° South 301 346 16,500 -2,640 Descending FlightAware
Sat 07:31:04 PM 40.7276 -74.0023 167° South 295 339 14,500 -2,667 Descending FlightAware
Sat 07:31:34 PM 40.6880 -73.9880 165° South 312 359 13,300 -1,184 Descending FlightAware
Sat 07:32:20 PM 40.6320 -73.9440 149° Southeast 303 349 13,000 -231 Descending FlightAware
Sat 07:32:52 PM 40.5980 -73.9020 137° Southeast 319 367 13,000 -643 Level FlightAware
Sat 07:33:44 PM 40.5500 -73.8250 129° Southeast 306 352 12,100 -1,442 Descending FlightAware
Sat 07:34:36 PM 40.4990 -73.7600 136° Southeast 283 326 10,500 -1,775 Descending FlightAware
Sat 07:34:55 PM 40.4790 -73.7430 147° Southeast 280 322 10,000 -1,773 Descending FlightAware
Sat 07:35:20 PM 40.4500 -73.7200 149° Southeast 282 325 9,200 -1,545 Descending FlightAware
Sat 07:36:01 PM 40.4050 -73.6860 150° Southeast 278 320 8,300 -1,161 Descending FlightAware
Sat 07:36:22 PM 40.3820 -73.6650 145° Southeast 285 328 8,000 -400 Descending FlightAware
Sat 07:36:46 PM 40.3710 -73.6260 110° East 300 345 8,000  Level FlightAware
Sat 07:37:14 PM 40.3850 -73.5810 68° East 294 338 8,000  Level FlightAware
Sat 07:37:42 PM 40.4180 -73.5570 29° Northeast 284 327 8,000  Level FlightAware
Sat 07:38:03 PM 40.4430 -73.5430 23° Northeast 283 326 8,000 -136 Level FlightAware
Sat 07:38:26 PM 40.4710 -73.5270 23° Northeast 283 326 7,900 -588 Descending FlightAware
Sat 07:38:54 PM 40.5050 -73.5080 23° Northeast 279 321 7,500 -1,053 Descending FlightAware
Sat 07:39:23 PM 40.5390 -73.4890 23° Northeast 277 319 6,900 -1,714 Descending FlightAware
Sat 07:39:50 PM 40.5710 -73.4710 23° Northeast 276 318 5,900 -2,118 Descending FlightAware
Sat 07:40:14 PM 40.5980 -73.4560 23° Northeast 277 319 5,100 -1,750 Descending FlightAware
Sat 07:40:38 PM 40.6280 -73.4420 20° North 283 326 4,500 -1,455 Descending FlightAware
Sat 07:40:47 PM 40.6390 -73.4410 North 278 320 4,300 -1,000 Descending FlightAware
Sat 07:41:08 PM 40.6630 -73.4440 355° North 266 306 4,000 -340 Descending FlightAware
Sat 07:41:40 PM 40.7040 -73.4520 352° North 259 298 4,000  Level FlightAware
Sat 07:42:00 PM 40.7280 -73.4560 353° North 260 299 4,000  Level FlightAware
Sat 07:42:20 PM 40.7470 -73.4600 351° North 257 296 4,000 -480 Level FlightAware
Sat 07:42:50 PM 40.7710 -73.4890 318° Northwest 224 258 3,600 -800 Descending FlightAware
Sat 07:43:05 PM 40.7810 -73.5070 306° West 218 251 3,400 -955 Descending FlightAware
Sat 07:43:34 PM 40.7980 -73.5380 306° West 211 243 2,900 -1,043 Descending FlightAware
Sat 07:43:51 PM 40.8030 -73.5570 289° West 194 223 2,600 -947 Descending FlightAware
Sat 07:43:53 PM 40.8030 -73.5610 270° West 193 222 2,600 -615 Level FlightAware
Sat 07:44:30 PM 40.7990 -73.6030 263° West 176 203 2,200 -571 Descending FlightAware
Sat 07:44:56 PM 40.7940 -73.6270 255° West 170 196 2,000 -226 Descending FlightAware
Sat 07:45:23 PM 40.7790 -73.6480 227° Southwest 170 196 2,000  Level FlightAware
Sat 07:45:39 PM 40.7680 -73.6590 217° Southwest 167 192 2,000  Level FlightAware
Sat 07:46:00 PM 40.7560 -73.6690 212° Southwest 155 178 2,000  Level FlightAware
Sat 07:46:28 PM 40.7390 -73.6820 210° Southwest 139 160 2,000 -128 Level FlightAware
Sat 07:46:47 PM 40.7280 -73.6900 209° Southwest 135 155 1,900 -545 Descending FlightAware
Sat 07:47:12 PM 40.7150 -73.7010 213° Southwest 127 146 1,600 -667 Descending FlightAware
Sat 07:47:32 PM 40.7050 -73.7080 208° Southwest 112 129 1,400 -545 Descending FlightAware
Sat 07:47:56 PM 40.6950 -73.7160 211° Southwest 115 132 1,200 -571 Descending FlightAware
Sat 07:48:14 PM 40.6870 -73.7230 214° Southwest 109 125 1,000 -638 Descending FlightAware
Sat 07:48:43 PM 40.6740 -73.7320 208° Southwest 114 131 700 -621 Descending FlightAware
Sat 07:49:12 PM 40.6600 -73.7430 211° Southwest 111 128 400 -625 Descending FlightAware
Sat 07:49:31 PM 40.6520 -73.7500 214° Southwest 112 129 200 -632 Descending FlightAware
Sat 07:49:58 PM 40.6390 -73.7600 210° Southwest 105 121 -444 Descending FlightAware
Sat 08:00:45 PM 40.6420 -73.7820 270° West  Level FlightAware

Login

Don't have an account? Register now (free) for customized features, flight alerts, and more!